Time;durP1;ratioP1;P1;durP2;ratioP2;P2;SDS_P1;SDS_P2;PMS_P1;PMS_P2;Temp;Humidity;BMP_temperature;BMP_pressure;BME280_temperature;BME280_humidity;BME280_pressure;Samples;Min_cycle;Max_cycle;Signal;HPM_P1;HPM_P2
2023/04/14 00:00:21;;;;;;;7.63;4.37;;;;;;;9.12;47.40;98977.81;10449041;28;20237;-80
2023/04/14 00:05:22;;;;;;;5.50;4.30;;;;;;;8.98;47.66;98973.41;10454973;28;20222;-81
2023/04/14 00:10:25;;;;;;;5.67;4.17;;;;;;;7.59;49.28;98859.03;10439473;28;20232;-81
2023/04/14 00:15:26;;;;;;;7.10;4.57;;;;;;;8.14;47.96;98940.22;10449513;28;20671;-82
2023/04/14 00:20:28;;;;;;;5.70;4.70;;;;;;;8.31;48.10;98947.97;10456949;28;20582;-81
2023/04/14 00:25:30;;;;;;;7.00;4.53;;;;;;;7.92;47.30;98937.50;10454789;28;20223;-80
2023/04/14 00:30:31;;;;;;;6.37;4.80;;;;;;;8.44;46.54;98969.44;10442124;28;20303;-80
2023/04/14 00:35:33;;;;;;;8.83;4.03;;;;;;;8.92;45.73;99004.34;10459925;28;20246;-81
2023/04/14 00:40:35;;;;;;;7.80;4.73;;;;;;;8.36;46.39;98966.88;10457596;28;20234;-81
2023/04/14 00:45:44;;;;;;;8.53;4.60;;;;;;;7.98;46.67;98940.44;10448875;28;20234;-79
2023/04/14 00:50:46;;;;;;;7.43;4.37;;;;;;;6.93;48.07;98843.91;10477400;28;20220;-81
2023/04/14 00:55:48;;;;;;;9.17;5.03;;;;;;;5.69;51.54;98679.53;10461431;28;20231;-82
2023/04/14 01:00:54;;;;;;;7.83;4.37;;;;;;;7.13;50.52;98948.75;10450600;28;20227;-80
2023/04/14 01:05:55;;;;;;;6.47;4.17;;;;;;;7.23;49.84;98971.63;10458437;28;20245;-80
2023/04/14 01:11:26;;;;;;;7.67;4.47;;;;;;;6.55;50.45;98915.69;10470006;28;20228;-80
2023/04/14 01:16:32;;;;;;;7.63;4.50;;;;;;;5.58;52.79;98764.84;10448486;28;20231;-80
2023/04/14 01:21:40;;;;;;;7.23;4.10;;;;;;;6.76;50.47;98971.69;10451176;28;20237;-81
2023/04/14 01:26:44;;;;;;;8.80;4.53;;;;;;;5.69;52.43;98834.31;10449725;28;20295;-80
2023/04/14 01:31:55;;;;;;;7.43;3.97;;;;;;;6.33;50.66;98938.63;10444223;28;20224;-81
2023/04/14 01:37:20;;;;;;;11.27;4.83;;;;;;;7.40;48.35;99025.50;10451412;28;20906;-82
2023/04/14 01:42:25;;;;;;;7.57;4.33;;;;;;;6.40;49.76;98971.47;10461106;28;20618;-81
2023/04/14 01:47:28;;;;;;;7.17;4.30;;;;;;;6.65;49.30;99011.16;10451423;28;20228;-80
2023/04/14 01:52:31;;;;;;;6.23;3.60;;;;;;;6.39;49.07;98985.75;10453828;28;20249;-81
2023/04/14 01:57:35;;;;;;;8.07;4.40;;;;;;;7.74;47.67;99068.38;10445078;28;20228;-81
2023/04/14 02:02:38;;;;;;;6.93;3.63;;;;;;;5.52;50.84;98869.88;10454940;28;20231;-82
2023/04/14 02:07:41;;;;;;;10.83;3.50;;;;;;;5.80;50.28;98939.25;10446957;28;20285;-80
2023/04/14 02:12:43;;;;;;;5.67;3.50;;;;;;;6.28;49.73;99015.38;10450227;28;20248;-80
2023/04/14 02:17:48;;;;;;;6.40;3.20;;;;;;;5.92;50.02;98990.16;10451192;28;20231;-80
2023/04/14 02:22:49;;;;;;;7.47;3.60;;;;;;;5.90;50.00;98986.84;10444825;28;20266;-80
2023/04/14 02:28:01;;;;;;;4.53;4.13;;;;;;;5.62;50.24;98959.91;10446531;28;20249;-81
2023/04/14 02:33:21;;;;;;;7.87;3.50;;;;;;;5.37;50.30;98967.09;10439457;28;20212;-81
2023/04/14 02:38:38;;;;;;;5.63;3.60;;;;;;;5.99;49.80;99030.13;10443305;28;20245;-80
2023/04/14 02:43:47;;;;;;;6.93;3.30;;;;;;;5.55;50.56;98996.09;10433365;28;20258;-80
2023/04/14 02:48:50;;;;;;;5.30;3.50;;;;;;;5.96;50.47;99044.59;10432420;28;20600;-80
2023/04/14 02:53:52;;;;;;;5.20;3.30;;;;;;;6.45;49.38;99099.34;10435792;28;20227;-80
2023/04/14 02:58:55;;;;;;;7.93;3.17;;;;;;;6.20;49.44;99095.97;10450435;28;20234;-80
2023/04/14 03:03:58;;;;;;;5.63;3.43;;;;;;;6.01;50.11;99083.91;10429047;28;20216;-80
2023/04/14 03:09:02;;;;;;;3.90;2.97;;;;;;;6.28;49.00;99103.06;10405920;28;20270;-80
2023/04/14 03:14:05;;;;;;;6.97;3.77;;;;;;;5.55;49.42;99041.19;10445637;28;20231;-80
2023/04/14 03:19:11;;;;;;;3.77;3.30;;;;;;;5.43;49.87;99041.56;10439653;28;20232;-80
2023/04/14 03:24:18;;;;;;;7.37;3.80;;;;;;;6.02;49.31;99091.69;10436841;28;20259;-79
2023/04/14 03:29:20;;;;;;;5.20;2.90;;;;;;;6.59;48.54;99103.91;10436198;28;20227;-80
2023/04/14 03:34:26;;;;;;;5.20;3.40;;;;;;;6.14;48.01;99109.94;10452387;28;20302;-79
2023/04/14 03:39:30;;;;;;;5.13;2.97;;;;;;;7.01;46.80;99144.41;10434681;28;20242;-75
2023/04/14 03:44:35;;;;;;;6.73;3.17;;;;;;;6.73;46.74;99144.03;10430289;28;20228;-74
2023/04/14 03:49:39;;;;;;;4.83;3.00;;;;;;;6.15;47.37;99117.72;10439602;28;20250;-74
2023/04/14 03:54:44;;;;;;;6.53;3.00;;;;;;;6.79;47.47;99159.34;10441724;28;20227;-74
2023/04/14 03:59:49;;;;;;;5.20;3.20;;;;;;;7.02;46.88;99166.50;10440408;28;20254;-73
2023/04/14 04:04:53;;;;;;;4.70;3.60;;;;;;;5.38;48.88;99027.97;10440360;28;20235;-74
2023/04/14 04:09:55;;;;;;;6.37;4.10;;;;;;;6.75;46.98;99160.63;10443707;28;20263;-73
2023/04/14 04:14:57;;;;;;;4.97;3.30;;;;;;;7.37;46.44;99178.41;10439008;28;20322;-76
2023/04/14 04:20:05;;;;;;;4.50;3.50;;;;;;;5.56;48.81;99074.72;10444059;28;20246;-77
2023/04/14 04:25:10;;;;;;;3.50;3.20;;;;;;;5.41;48.40;99109.06;10439704;28;20726;-77
2023/04/14 04:30:13;;;;;;;5.37;3.50;;;;;;;4.94;50.17;99047.72;10436466;28;20243;-78
2023/04/14 04:35:16;;;;;;;4.07;3.20;;;;;;;4.75;50.90;99032.97;10438886;28;20220;-77
2023/04/14 04:40:17;;;;;;;6.03;3.40;;;;;;;5.19;50.20;99094.66;10441575;28;20267;-78
2023/04/14 04:45:40;;;;;;;6.80;3.97;;;;;;;6.16;49.38;99175.19;10437066;28;20791;-72
2023/04/14 04:50:42;;;;;;;6.33;3.60;;;;;;;5.73;49.82;99158.66;10436873;28;20220;-73
2023/04/14 04:55:44;;;;;;;9.27;4.30;;;;;;;6.21;49.62;99186.13;10438615;28;20255;-73
2023/04/14 05:00:46;;;;;;;6.80;4.13;;;;;;;5.01;51.50;99094.81;10437645;28;20239;-73
2023/04/14 05:05:47;;;;;;;7.23;4.47;;;;;;;5.44;51.17;99136.09;10451844;28;20232;-73
2023/04/14 05:10:49;;;;;;;10.33;5.40;;;;;;;5.00;50.85;99109.03;10439010;28;20282;-72
2023/04/14 05:15:51;;;;;;;9.57;3.90;;;;;;;5.61;50.82;99163.47;10435940;28;20236;-73
2023/04/14 05:20:53;;;;;;;7.73;4.73;;;;;;;5.87;50.70;99187.19;10448552;28;20244;-73
2023/04/14 05:25:56;;;;;;;6.17;5.10;;;;;;;4.74;52.24;99092.31;10441778;28;20232;-73
2023/04/14 05:31:18;;;;;;;8.63;4.57;;;;;;;5.23;51.94;99143.72;10434258;28;20262;-73
2023/04/14 05:36:20;;;;;;;9.90;5.70;;;;;;;5.38;51.92;99163.28;10434960;28;20609;-72
2023/04/14 05:41:22;;;;;;;7.73;5.77;;;;;;;5.26;52.14;99161.97;10438121;28;20235;-73
2023/04/14 05:46:24;;;;;;;7.33;5.30;;;;;;;5.45;51.69;99176.72;10438526;28;20239;-71
2023/04/14 05:51:26;;;;;;;9.00;4.70;;;;;;;5.50;52.44;99177.91;10438042;28;20211;-71
2023/04/14 05:56:28;;;;;;;5.80;4.17;;;;;;;5.28;52.73;99154.66;10445818;28;20220;-71
2023/04/14 06:01:30;;;;;;;6.60;4.40;;;;;;;6.15;52.06;99193.94;10431281;28;20205;-69
2023/04/14 06:06:32;;;;;;;10.20;5.67;;;;;;;5.97;51.78;99226.00;10450813;28;20357;-70
2023/04/14 06:11:33;;;;;;;7.97;5.33;;;;;;;5.86;52.20;99217.41;10436711;28;20350;-69
2023/04/14 06:16:35;;;;;;;7.53;4.70;;;;;;;6.31;51.47;99207.16;10432566;28;20230;-70
2023/04/14 06:21:37;;;;;;;8.90;4.90;;;;;;;7.30;49.77;99198.75;10438575;28;20214;-70
2023/04/14 06:26:39;;;;;;;9.37;4.60;;;;;;;7.00;51.11;99217.22;10438905;28;20228;-71
2023/04/14 06:31:40;;;;;;;8.47;4.10;;;;;;;6.59;52.00;99228.84;10433189;28;20216;-71
2023/04/14 06:36:42;;;;;;;8.03;4.67;;;;;;;6.91;52.34;99218.28;10437193;28;20707;-70
2023/04/14 06:41:44;;;;;;;6.83;4.50;;;;;;;7.13;52.48;99206.84;10436203;28;20357;-70
2023/04/14 06:46:46;;;;;;;10.40;4.80;;;;;;;6.80;52.61;99206.19;10437312;28;20243;-70
2023/04/14 06:51:47;;;;;;;7.53;4.73;;;;;;;7.03;52.15;99206.22;10434376;28;20245;-70
2023/04/14 06:56:49;;;;;;;9.73;4.40;;;;;;;7.01;53.19;99199.44;10443551;28;20236;-71
2023/04/14 07:01:51;;;;;;;8.43;4.63;;;;;;;6.81;53.68;99221.16;10437089;28;20243;-70
2023/04/14 07:06:58;;;;;;;7.03;4.47;;;;;;;6.79;52.09;99217.84;10439327;28;20238;-70
2023/04/14 07:12:00;;;;;;;6.90;4.00;;;;;;;7.77;51.63;99205.69;10429568;28;20570;-70
2023/04/14 07:17:02;;;;;;;9.27;4.60;;;;;;;8.02;50.89;99213.50;10435546;28;20327;-71
2023/04/14 07:22:06;;;;;;;6.93;4.17;;;;;;;7.76;51.11;99217.34;10443672;28;20223;-70
2023/04/14 07:27:14;;;;;;;9.03;3.93;;;;;;;9.01;49.08;99210.53;10441405;28;20228;-70
2023/04/14 07:32:16;;;;;;;8.17;4.70;;;;;;;9.15;49.37;99231.03;10441673;28;20263;-70
2023/04/14 07:37:18;;;;;;;8.03;4.40;;;;;;;8.47;49.25;99183.19;10441381;28;20621;-70
2023/04/14 07:42:19;;;;;;;7.67;3.83;;;;;;;9.81;47.96;99238.03;10442268;28;20220;-70
2023/04/14 07:47:21;;;;;;;5.60;3.87;;;;;;;9.69;47.39;99228.88;10440757;28;20621;-71
2023/04/14 07:52:22;;;;;;;8.37;3.80;;;;;;;9.45;48.51;99208.72;10446980;28;20661;-70
2023/04/14 07:57:24;;;;;;;7.30;3.63;;;;;;;9.71;46.69;99224.97;10447239;28;20505;-71
2023/04/14 08:02:26;;;;;;;6.03;3.63;;;;;;;9.15;48.15;99192.84;10442068;28;20238;-70
2023/04/14 08:07:28;;;;;;;9.73;3.87;;;;;;;9.64;47.88;99223.28;10440503;28;20246;-70
2023/04/14 08:12:30;;;;;;;6.60;3.57;;;;;;;8.01;49.38;99161.22;10440179;28;20235;-70
2023/04/14 08:17:32;;;;;;;6.20;3.40;;;;;;;8.79;47.37;99197.13;10447540;28;20310;-69
2023/04/14 08:22:34;;;;;;;6.53;3.43;;;;;;;9.97;47.82;99223.56;10447610;28;20227;-70
2023/04/14 08:27:36;;;;;;;4.53;3.23;;;;;;;9.30;47.47;99187.41;10443172;28;20775;-70
2023/04/14 08:32:37;;;;;;;5.93;3.40;;;;;;;10.41;46.14;99216.25;10382311;28;20238;-70
2023/04/14 08:37:39;;;;;;;8.40;3.47;;;;;;;10.50;45.87;99212.41;10436122;28;20259;-70
2023/04/14 08:42:41;;;;;;;8.00;3.57;;;;;;;9.74;46.91;99167.69;10432446;28;20228;-70
2023/04/14 08:47:45;;;;;;;6.85;3.13;;;;;;;10.44;46.49;99218.53;4799115;28;10002043;-69
2023/04/14 08:52:49;;;;;;;6.43;3.07;;;;;;;10.97;44.32;99240.22;10166987;28;4999991;-70
2023/04/14 08:57:51;;;;;;;5.03;3.37;;;;;;;11.31;43.85;99237.66;10388439;28;20237;-70
2023/04/14 09:02:54;;;;;;;5.53;3.97;;;;;;;12.33;43.21;99257.94;10393658;28;20233;-69
2023/04/14 09:07:57;;;;;;;6.70;3.10;;;;;;;11.11;43.46;99184.06;10381909;28;20752;-70
2023/04/14 09:12:59;;;;;;;4.40;3.13;;;;;;;11.13;43.87;99149.84;10401597;28;20229;-70
2023/04/14 09:18:01;;;;;;;5.53;3.30;;;;;;;11.51;43.87;99174.22;10387396;28;20228;-70
2023/04/14 09:23:03;;;;;;;5.90;2.97;;;;;;;11.20;42.95;99153.38;10391457;28;20228;-70
2023/04/14 09:28:06;;;;;;;4.77;2.97;;;;;;;10.95;43.40;99105.78;10398897;28;20310;-70
2023/04/14 09:33:21;;;;;;;5.07;2.80;;;;;;;12.19;43.14;99186.56;10389687;28;20232;-70
2023/04/14 09:38:36;;;;;;;7.23;2.90;;;;;;;10.92;41.92;99116.03;10396378;28;20243;-70
2023/04/14 09:43:38;;;;;;;9.30;3.07;;;;;;;12.08;41.22;99174.63;10401522;28;20240;-70
2023/04/14 09:48:52;;;;;;;5.20;3.07;;;;;;;12.66;40.59;99206.06;10401187;28;20239;-70
2023/04/14 09:54:01;;;;;;;4.33;2.50;;;;;;;11.84;39.34;99159.19;10398973;28;20298;-70
2023/04/14 09:59:03;;;;;;;4.40;2.77;;;;;;;9.96;41.70;99056.22;10393491;28;20325;-70
2023/04/14 10:04:20;;;;;;;6.57;2.97;;;;;;;12.00;40.07;99148.03;10391669;28;20243;-70
2023/04/14 10:09:26;;;;;;;3.40;2.30;;;;;;;12.79;39.09;99154.19;10399262;28;20232;-71
2023/04/14 10:14:28;;;;;;;6.20;2.70;;;;;;;13.55;39.18;99167.75;10397132;28;20886;-70
2023/04/14 10:19:29;;;;;;;2.53;2.40;;;;;;;12.43;40.10;99093.81;10401290;28;20228;-70
2023/04/14 10:24:32;;;;;;;4.00;2.50;;;;;;;11.67;40.59;99043.56;10401407;28;20224;-70
2023/04/14 10:29:33;;;;;;;4.40;2.70;;;;;;;12.12;40.52;99038.25;10406233;28;20331;-70
2023/04/14 10:34:37;;;;;;;4.40;2.43;;;;;;;12.72;38.45;99065.63;10396994;28;20251;-72
2023/04/14 10:39:42;;;;;;;4.17;2.43;;;;;;;13.26;37.62;99092.09;10406973;28;20723;-73
2023/04/14 10:44:44;;;;;;;2.97;2.00;;;;;;;12.51;38.19;99026.50;10407048;28;20235;-74
2023/04/14 10:49:48;;;;;;;3.13;2.30;;;;;;;13.33;37.30;99076.78;10395667;28;20236;-73
2023/04/14 10:54:52;;;;;;;2.73;2.03;;;;;;;12.66;36.34;99025.41;10396813;28;20319;-71
2023/04/14 10:59:58;;;;;;;3.47;2.10;;;;;;;11.51;37.31;98943.81;10403319;28;20239;-74
2023/04/14 11:06:52;;;;;;;5.33;2.20;;;;;;;11.60;38.12;99000.66;10593938;27;20327;-68
2023/04/14 11:11:56;;;;;;;6.80;2.53;;;;;;;11.72;40.30;99031.16;10454620;28;20230;-68
2023/04/14 11:17:03;;;;;;;6.17;2.80;;;;;;;11.76;40.15;98994.03;10491976;28;20239;-71
2023/04/14 11:22:05;;;;;;;4.27;2.43;;;;;;;11.88;39.00;98981.63;10501600;28;20717;-69
2023/04/14 11:27:11;;;;;;;3.70;2.53;;;;;;;12.23;38.67;98996.53;10500853;28;20246;-71
2023/04/14 11:32:13;;;;;;;6.37;2.30;;;;;;;11.51;37.26;98978.63;10501267;28;20269;-69
2023/04/14 11:37:15;;;;;;;2.73;2.00;;;;;;;12.92;36.64;99010.94;10508558;28;20223;-68
2023/04/14 11:42:18;;;;;;;3.57;1.87;;;;;;;11.93;37.03;98960.38;10506318;28;20595;-69
2023/04/14 11:47:22;;;;;;;4.80;2.00;;;;;;;12.99;37.96;98997.47;10498856;28;20242;-69
2023/04/14 11:52:24;;;;;;;3.73;1.93;;;;;;;11.59;36.62;98907.91;10499662;28;20237;-69
2023/04/14 11:57:26;;;;;;;2.60;1.83;;;;;;;12.87;36.96;98963.31;10502150;28;20231;-69
2023/04/14 12:02:27;;;;;;;5.23;2.00;;;;;;;12.36;36.72;98875.72;10499848;28;20770;-69
2023/04/14 12:07:30;;;;;;;3.67;2.03;;;;;;;12.88;36.46;98926.53;10501698;28;20230;-69
2023/04/14 12:12:32;;;;;;;3.80;2.33;;;;;;;13.19;35.93;98935.53;10504756;28;20230;-69
2023/04/14 12:17:35;;;;;;;4.93;2.27;;;;;;;14.90;35.84;98970.38;10462696;28;20236;-69
2023/04/14 12:22:36;;;;;;;2.57;1.80;;;;;;;12.72;35.17;98871.53;10473605;28;20230;-69
2023/04/14 12:27:38;;;;;;;6.30;2.20;;;;;;;13.68;35.33;98896.13;10471475;28;20232;-71
2023/04/14 12:32:40;;;;;;;4.20;1.90;;;;;;;14.24;35.82;98904.91;10468706;28;20675;-71
2023/04/14 12:37:47;;;;;;;2.53;1.90;;;;;;;12.48;35.66;98812.28;10475672;28;20434;-71
2023/04/14 12:42:52;;;;;;;3.93;2.00;;;;;;;13.61;33.00;98861.25;10471997;28;20586;-71
2023/04/14 12:47:55;;;;;;;2.87;1.77;;;;;;;13.66;35.20;98815.69;10482409;28;20263;-71
2023/04/14 12:52:58;;;;;;;2.37;1.60;;;;;;;12.70;35.53;98818.09;10476647;28;20717;-71
2023/04/14 12:58:02;;;;;;;2.10;1.90;;;;;;;14.30;34.52;98819.75;10480685;28;20254;-71
2023/04/14 13:03:04;;;;;;;3.80;1.90;;;;;;;13.34;34.56;98780.16;10460532;28;20243;-71
2023/04/14 13:08:06;;;;;;;3.87;2.10;;;;;;;14.15;35.41;98785.22;10436514;28;20237;-73
2023/04/14 13:13:08;;;;;;;4.67;2.40;;;;;;;13.18;36.00;98727.88;10445755;28;20310;-72
2023/04/14 13:18:09;;;;;;;4.20;2.20;;;;;;;13.92;35.65;98753.69;10465729;28;20342;-72
2023/04/14 13:23:12;;;;;;;4.73;2.20;;;;;;;12.53;34.73;98666.72;10454454;28;20235;-72
2023/04/14 13:28:13;;;;;;;4.43;2.77;;;;;;;13.32;34.53;98684.75;10438453;28;20234;-72
2023/04/14 13:33:16;;;;;;;4.07;2.27;;;;;;;13.85;33.83;98726.91;10450831;28;20221;-72
2023/04/14 13:38:17;;;;;;;3.07;2.30;;;;;;;12.62;34.19;98643.09;10439971;28;20235;-72
2023/04/14 13:43:19;;;;;;;7.67;2.10;;;;;;;14.08;32.80;98691.16;10467304;28;20535;-72
2023/04/14 13:48:21;;;;;;;3.20;1.90;;;;;;;15.31;33.89;98720.63;10464584;28;20232;-72
2023/04/14 13:53:22;;;;;;;4.00;1.80;;;;;;;15.56;32.95;98710.59;10466365;28;20262;-72
2023/04/14 13:58:25;;;;;;;5.20;2.30;;;;;;;14.34;33.14;98621.78;10471763;28;20729;-72
2023/04/14 14:03:26;;;;;;;3.40;2.30;;;;;;;15.40;33.24;98664.44;10465895;28;20228;-72
2023/04/14 14:08:36;;;;;;;2.70;1.90;;;;;;;16.01;33.98;98658.41;10470297;28;20617;-72
2023/04/14 14:13:38;;;;;;;5.20;2.37;;;;;;;15.90;32.33;98640.47;10485504;28;20494;-72
2023/04/14 14:18:40;;;;;;;4.83;2.50;;;;;;;13.21;34.87;98512.53;10462039;28;20894;-70
2023/04/14 14:23:42;;;;;;;5.87;2.83;;;;;;;14.58;33.71;98555.25;10469143;28;20257;-72
2023/04/14 14:28:44;;;;;;;4.53;2.17;;;;;;;15.11;33.27;98589.06;10466713;28;20239;-72
2023/04/14 14:33:46;;;;;;;4.33;2.40;;;;;;;15.04;35.39;98583.00;10469552;28;20224;-72
2023/04/14 14:38:47;;;;;;;4.50;2.20;;;;;;;15.54;34.39;98562.53;10469822;28;20235;-72
2023/04/14 14:43:50;;;;;;;4.33;2.10;;;;;;;15.51;34.95;98534.16;10463405;28;20230;-72
2023/04/14 14:48:51;;;;;;;5.67;2.37;;;;;;;13.95;34.60;98497.75;10467187;28;20242;-72
2023/04/14 14:53:53;;;;;;;6.47;2.30;;;;;;;16.30;33.67;98558.44;10460381;28;20808;-72
2023/04/14 14:59:09;;;;;;;5.67;2.10;;;;;;;15.47;32.38;98534.91;10469018;28;20241;-72
2023/04/14 15:04:10;;;;;;;3.33;1.90;;;;;;;15.87;32.71;98520.38;10469807;28;20313;-72
2023/04/14 15:09:13;;;;;;;2.70;1.63;;;;;;;14.02;33.02;98448.16;10474819;28;20235;-72
2023/04/14 15:14:14;;;;;;;2.07;1.77;;;;;;;15.73;33.10;98498.38;10468128;28;20717;-73
2023/04/14 15:19:16;;;;;;;2.63;1.80;;;;;;;14.61;30.27;98492.84;10451904;28;20227;-70
2023/04/14 15:24:18;;;;;;;3.97;2.00;;;;;;;15.35;30.40;98539.59;10447700;28;20231;-77
2023/04/14 15:29:23;;;;;;;2.10;1.57;;;;;;;15.89;30.99;98493.97;10447464;28;20235;-71
2023/04/14 15:34:26;;;;;;;4.50;1.93;;;;;;;15.42;30.21;98473.66;10444068;28;20768;-72
2023/04/14 15:39:28;;;;;;;2.93;1.70;;;;;;;15.23;31.77;98480.38;10470809;28;20239;-70
2023/04/14 15:44:29;;;;;;;6.13;2.47;;;;;;;16.82;31.91;98517.41;10457147;28;20239;-72
2023/04/14 15:49:31;;;;;;;3.53;1.70;;;;;;;14.86;29.93;98440.50;10465230;28;20249;-72
2023/04/14 15:54:32;;;;;;;2.27;1.50;;;;;;;15.00;29.97;98455.28;10470385;28;20733;-70
2023/04/14 15:59:34;;;;;;;4.33;2.13;;;;;;;15.97;31.63;98507.03;10476132;28;20247;-70
2023/04/14 16:04:36;;;;;;;8.53;3.50;;;;;;;14.91;30.77;98427.09;10478236;28;20235;-72
2023/04/14 16:09:38;;;;;;;5.10;2.30;;;;;;;15.57;30.35;98461.47;10479511;28;20227;-72
2023/04/14 16:14:41;;;;;;;4.10;2.13;;;;;;;16.42;30.76;98494.34;10482304;28;20223;-72
2023/04/14 16:19:43;;;;;;;3.57;1.77;;;;;;;16.40;29.99;98486.50;10478790;28;20238;-72
2023/04/14 16:24:45;;;;;;;2.50;1.60;;;;;;;16.44;30.49;98444.41;10471964;28;20762;-70
2023/04/14 16:29:46;;;;;;;3.60;2.27;;;;;;;15.93;30.61;98384.53;10476872;28;20294;-72
2023/04/14 16:34:48;;;;;;;1.93;1.60;;;;;;;16.04;31.27;98451.00;10474218;28;20323;-70
2023/04/14 16:39:56;;;;;;;4.30;2.00;;;;;;;15.62;30.33;98415.72;10518491;28;20231;-70
2023/04/14 16:44:58;;;;;;;3.43;2.10;;;;;;;14.88;30.85;98412.28;10517720;28;20737;-72
2023/04/14 16:50:00;;;;;;;1.77;1.63;;;;;;;14.85;29.32;98426.22;10487977;28;20250;-72
2023/04/14 16:55:01;;;;;;;2.37;1.60;;;;;;;16.35;28.56;98440.56;10507570;28;20222;-72
2023/04/14 17:00:05;;;;;;;2.03;1.60;;;;;;;17.06;28.43;98446.84;10480785;28;20277;-70
2023/04/14 17:05:08;;;;;;;3.13;1.83;;;;;;;17.59;27.32;98417.09;10495472;28;20606;-69
2023/04/14 17:10:11;;;;;;;3.33;1.80;;;;;;;17.60;27.47;98414.13;10517586;28;20291;-67
2023/04/14 17:15:12;;;;;;;2.10;1.50;;;;;;;16.95;27.61;98378.38;10510605;28;20226;-70
2023/04/14 17:20:14;;;;;;;1.97;1.40;;;;;;;17.21;28.02;98409.09;10511946;28;20239;-70
2023/04/14 17:25:18;;;;;;;2.90;1.50;;;;;;;17.07;28.30;98418.72;10514748;28;20226;-72
2023/04/14 17:30:20;;;;;;;2.30;1.50;;;;;;;17.28;28.23;98414.25;10495198;28;20727;-77
2023/04/14 17:35:21;;;;;;;2.73;1.57;;;;;;;17.28;28.85;98398.84;10515562;28;20235;-74
2023/04/14 17:40:24;;;;;;;2.17;2.00;;;;;;;16.90;28.69;98354.81;10519206;28;20231;-74
2023/04/14 17:45:25;;;;;;;3.43;1.57;;;;;;;16.73;29.33;98384.69;10509924;28;20287;-74
2023/04/14 17:50:28;;;;;;;1.70;1.60;;;;;;;16.27;29.57;98361.94;10509012;28;20239;-74
2023/04/14 17:55:30;;;;;;;1.97;1.40;;;;;;;16.61;28.75;98395.69;10501660;28;20698;-74
2023/04/14 18:00:32;;;;;;;2.80;1.53;;;;;;;16.30;28.78;98366.78;10496661;28;20238;-74
2023/04/14 18:05:34;;;;;;;3.30;2.40;;;;;;;15.83;28.89;98365.53;10509394;28;20232;-74
2023/04/14 18:10:36;;;;;;;2.30;1.60;;;;;;;16.19;28.54;98390.97;10509405;28;20899;-68
2023/04/14 18:15:40;;;;;;;4.33;1.73;;;;;;;15.77;29.34;98382.72;10506267;28;20826;-73
2023/04/14 18:20:44;;;;;;;3.40;1.40;;;;;;;16.18;28.71;98412.81;10494294;28;20229;-70
2023/04/14 18:25:45;;;;;;;3.87;1.70;;;;;;;14.62;29.81;98330.25;10506391;28;20233;-70
2023/04/14 18:30:54;;;;;;;2.10;1.90;;;;;;;15.06;29.48;98381.53;10512244;28;20230;-72
2023/04/14 18:35:58;;;;;;;3.93;1.87;;;;;;;15.84;28.74;98453.44;10492524;28;20786;-70
2023/04/14 18:41:02;;;;;;;1.83;1.57;;;;;;;16.20;29.27;98449.28;10509690;28;20241;-72
2023/04/14 18:46:04;;;;;;;2.27;1.80;;;;;;;16.31;29.87;98454.81;10508184;28;20230;-73
2023/04/14 18:51:08;;;;;;;6.47;1.83;;;;;;;14.21;30.70;98327.75;10515380;28;20234;-69
2023/04/14 18:56:11;;;;;;;3.37;1.90;;;;;;;14.32;32.03;98428.25;10517222;28;20223;-68
2023/04/14 19:01:12;;;;;;;2.50;1.67;;;;;;;14.21;30.76;98418.41;10509284;28;20246;-72
2023/04/14 19:06:14;;;;;;;3.80;1.70;;;;;;;15.67;29.31;98467.84;10512765;28;20269;-69
2023/04/14 19:11:16;;;;;;;2.90;1.70;;;;;;;14.97;30.04;98438.78;10514812;28;20276;-71
2023/04/14 19:16:17;;;;;;;3.13;1.77;;;;;;;12.87;32.08;98353.03;10504828;28;20314;-73
2023/04/14 19:21:19;;;;;;;3.30;2.00;;;;;;;12.60;32.29;98400.97;10510860;28;20353;-72
2023/04/14 19:26:21;;;;;;;2.03;1.80;;;;;;;14.34;31.32;98501.50;10511256;28;20237;-72
2023/04/14 19:31:24;;;;;;;2.30;2.10;;;;;;;13.59;31.73;98489.75;10509123;28;20233;-75
2023/04/14 19:36:27;;;;;;;3.90;2.43;;;;;;;14.49;31.07;98501.00;10499019;28;20337;-70
2023/04/14 19:41:30;;;;;;;2.07;1.90;;;;;;;12.95;32.37;98456.56;10510219;28;20215;-74
2023/04/14 19:46:34;;;;;;;2.50;1.60;;;;;;;12.34;32.84;98444.06;10506949;28;20239;-71
2023/04/14 19:51:36;;;;;;;2.33;2.00;;;;;;;12.21;33.26;98446.13;10510587;28;20213;-69
2023/04/14 19:56:37;;;;;;;2.87;1.93;;;;;;;12.96;32.52;98517.25;10512978;28;20223;-72
2023/04/14 20:01:39;;;;;;;2.90;2.03;;;;;;;12.32;32.70;98488.25;10513851;28;20214;-72
2023/04/14 20:06:44;;;;;;;3.77;2.00;;;;;;;12.25;33.05;98482.16;10517366;28;20239;-70
2023/04/14 20:11:45;;;;;;;2.80;2.10;;;;;;;12.08;33.63;98471.22;10512218;28;20226;-74
2023/04/14 20:16:47;;;;;;;4.10;2.37;;;;;;;12.53;33.27;98511.09;10498982;28;20259;-70
2023/04/14 20:21:49;;;;;;;3.67;2.10;;;;;;;12.54;33.41;98505.50;10517052;28;20262;-71
2023/04/14 20:26:52;;;;;;;3.30;2.20;;;;;;;14.47;32.48;98459.22;10519516;28;20231;-75
2023/04/14 20:31:53;;;;;;;4.63;2.00;;;;;;;14.52;31.98;98460.09;10496759;28;20237;-73
2023/04/14 20:36:55;;;;;;;2.37;2.13;;;;;;;14.20;33.51;98497.47;10518996;28;20234;-73
2023/04/14 20:41:56;;;;;;;2.00;1.87;;;;;;;13.55;32.42;98495.81;10508771;28;20721;-71
2023/04/14 20:46:59;;;;;;;4.27;2.97;;;;;;;14.71;33.63;98490.34;10506827;28;20720;-70
2023/04/14 20:52:01;;;;;;;8.30;5.17;;;;;;;11.77;37.22;98342.56;10506464;28;20230;-71
2023/04/14 20:57:04;;;;;;;5.87;3.40;;;;;;;11.35;37.82;98373.78;10515764;28;20235;-72
2023/04/14 21:02:06;;;;;;;5.00;2.43;;;;;;;11.30;37.28;98406.56;10501245;28;20234;-72
2023/04/14 21:07:07;;;;;;;5.17;2.67;;;;;;;10.60;37.78;98372.84;10499734;28;20258;-69
2023/04/14 21:12:10;;;;;;;3.63;2.70;;;;;;;10.28;37.85;98380.09;10515958;28;20253;-73
2023/04/14 21:17:17;;;;;;;6.70;3.67;;;;;;;12.14;35.65;98508.69;10495905;28;20235;-76
2023/04/14 21:22:18;;;;;;;4.00;2.87;;;;;;;12.45;34.73;98509.53;10518108;28;20254;-73
2023/04/14 21:27:20;;;;;;;3.70;2.83;;;;;;;12.53;35.13;98527.19;10511078;28;20233;-70
2023/04/14 21:32:22;;;;;;;3.53;2.70;;;;;;;11.31;36.70;98440.34;10507093;28;20233;-69
2023/04/14 21:37:24;;;;;;;4.03;2.70;;;;;;;11.48;36.12;98474.59;10510059;28;20234;-68
2023/04/14 21:42:26;;;;;;;3.00;2.43;;;;;;;10.64;37.23;98419.50;10519136;28;20709;-74
2023/04/14 21:47:28;;;;;;;3.83;2.40;;;;;;;10.05;37.34;98378.78;10504568;28;20241;-72
2023/04/14 21:52:30;;;;;;;3.40;2.60;;;;;;;11.96;35.95;98522.13;10505873;28;20238;-70
2023/04/14 21:57:32;;;;;;;2.30;2.10;;;;;;;12.90;34.99;98498.34;10507947;28;20230;-71
2023/04/14 22:02:50;;;;;;;9.10;2.80;;;;;;;11.88;36.19;98520.56;10507200;28;20277;-72
2023/04/14 22:07:52;;;;;;;3.03;2.53;;;;;;;10.57;38.24;98458.06;10494307;28;20708;-73
2023/04/14 22:12:54;;;;;;;7.60;3.30;;;;;;;10.13;39.07;98420.50;10510815;28;20313;-72
2023/04/14 22:17:57;;;;;;;2.73;2.33;;;;;;;12.73;36.22;98508.13;10510537;28;20727;-73
2023/04/14 22:22:59;;;;;;;4.97;3.30;;;;;;;12.57;37.04;98524.88;10513080;28;20223;-73
2023/04/14 22:28:00;;;;;;;4.53;3.33;;;;;;;10.35;39.32;98414.81;10512170;28;20245;-73
2023/04/14 22:33:02;;;;;;;6.40;3.53;;;;;;;9.73;40.01;98391.28;10494728;28;20230;-73
2023/04/14 22:38:04;;;;;;;4.90;2.83;;;;;;;10.61;38.89;98516.25;10514750;28;20257;-73
2023/04/14 22:43:07;;;;;;;4.23;3.23;;;;;;;11.07;38.61;98531.19;10504221;28;20630;-73
2023/04/14 22:48:10;;;;;;;3.97;2.80;;;;;;;10.00;39.77;98482.84;10511073;28;20227;-73
2023/04/14 22:53:12;;;;;;;4.20;3.10;;;;;;;10.08;39.68;98497.84;10516780;28;20867;-72
2023/04/14 22:58:16;;;;;;;6.90;3.67;;;;;;;10.82;39.79;98533.03;10505093;28;20292;-72
2023/04/14 23:03:18;;;;;;;3.80;2.80;;;;;;;10.02;40.15;98509.38;10516031;28;20242;-73
2023/04/14 23:08:20;;;;;;;6.57;3.77;;;;;;;10.42;39.90;98530.56;10507937;28;20317;-73
2023/04/14 23:13:21;;;;;;;3.50;3.20;;;;;;;10.63;39.56;98543.63;10510021;28;20234;-73
2023/04/14 23:18:26;;;;;;;4.23;3.17;;;;;;;10.29;40.32;98537.63;10506044;28;20223;-73
2023/04/14 23:23:28;;;;;;;4.50;3.33;;;;;;;11.76;38.71;98547.28;10506391;28;20234;-73
2023/04/14 23:28:29;;;;;;;7.07;3.60;;;;;;;11.62;39.30;98545.75;10518674;28;20870;-73
2023/04/14 23:33:31;;;;;;;6.47;3.53;;;;;;;10.84;40.18;98542.47;10507499;28;20613;-73
2023/04/14 23:38:33;;;;;;;6.53;3.60;;;;;;;9.81;41.02;98467.69;10488019;28;20297;-73